Time;durP1;ratioP1;P1;durP2;ratioP2;P2;SDS_P1;SDS_P2;PMS_P1;PMS_P2;Temp;Humidity;BMP_temperature;BMP_pressure;BME280_temperature;BME280_humidity;BME280_pressure;Samples;Min_cycle;Max_cycle;Signal;HPM_P1;HPM_P2
2023/06/24 00:01:34;;;;;;;;;;;;;;;14.65;100.00;96735.03;5053417;28;19932;-75
2023/06/24 00:04:02;;;;;;;;;;;;;;;14.66;100.00;96731.50;5051752;28;19943;-74
2023/06/24 00:06:28;;;;;;;;;;;;;;;14.53;100.00;96733.19;5044974;28;19932;-74
2023/06/24 00:09:00;;;;;;;;;;;;;;;14.52;100.00;96737.56;5048011;28;19948;-75
2023/06/24 00:11:26;;;;;;;;;;;;;;;14.61;100.00;96733.56;5051052;28;19929;-75
2023/06/24 00:13:53;;;;;;;;;;;;;;;14.55;100.00;96733.13;5051066;28;19929;-74
2023/06/24 00:16:25;;;;;;;;;;;;;;;14.58;100.00;96740.75;5048439;28;20407;-75
2023/06/24 00:18:52;;;;;;;;;;;;;;;14.58;100.00;96736.38;5052147;28;20367;-75
2023/06/24 00:21:20;;;;;;;;;;;;;;;14.57;100.00;96742.50;5053056;28;19932;-75
2023/06/24 00:23:48;;;;;;;;;;;;;;;14.61;100.00;96733.56;5051323;28;19936;-75
2023/06/24 00:26:14;;;;;;;;;;;;;;;14.57;100.00;96737.28;5052435;28;19931;-75
2023/06/24 00:28:40;;;;;;;;;;;;;;;14.48;100.00;96736.06;5052732;28;19978;-75
2023/06/24 00:31:07;;;;;;;;;;;;;;;14.51;100.00;96735.91;5047458;28;20387;-75
2023/06/24 00:33:35;;;;;;;;;;;;;;;14.39;100.00;96739.28;5050377;28;20288;-75
2023/06/24 00:36:02;;;;;;;;;;;;;;;14.31;100.00;96732.84;5044358;28;19925;-75
2023/06/24 00:38:32;;;;;;;;;;;;;;;14.19;100.00;96737.88;5048330;28;20338;-75
2023/06/24 00:40:58;;;;;;;;;;;;;;;14.16;100.00;96740.66;5041833;28;19929;-74
2023/06/24 00:43:24;;;;;;;;;;;;;;;14.19;100.00;96737.88;5045739;28;19940;-75
2023/06/24 00:45:53;;;;;;;;;;;;;;;14.26;100.00;96738.34;5051779;28;20004;-74
2023/06/24 00:48:20;;;;;;;;;;;;;;;14.19;100.00;96732.66;5046266;28;20410;-75
2023/06/24 00:50:46;;;;;;;;;;;;;;;13.97;100.00;96732.31;5047800;28;19928;-75
2023/06/24 00:53:12;;;;;;;;;;;;;;;13.96;100.00;96733.25;5047574;28;19928;-75
2023/06/24 00:55:40;;;;;;;;;;;;;;;14.06;100.00;96729.16;5041404;28;20023;-75
2023/06/24 00:58:07;;;;;;;;;;;;;;;14.14;100.00;96732.13;5048591;28;19925;-74
2023/06/24 01:00:34;;;;;;;;;;;;;;;14.25;100.00;96740.13;5043251;28;19933;-74
2023/06/24 01:03:00;;;;;;;;;;;;;;;14.36;100.00;96734.25;5039050;28;19955;-75
2023/06/24 01:05:29;;;;;;;;;;;;;;;14.32;100.00;96740.56;5039283;28;19929;-75
2023/06/24 01:07:55;;;;;;;;;;;;;;;14.19;100.00;96740.50;5045858;28;19925;-75
2023/06/24 01:10:23;;;;;;;;;;;;;;;14.11;100.00;96723.66;5051066;28;20318;-75
2023/06/24 01:12:50;;;;;;;;;;;;;;;14.03;100.00;96729.34;5047415;28;19960;-74
2023/06/24 01:15:17;;;;;;;;;;;;;;;14.02;100.00;96732.88;5041605;28;19947;-74
2023/06/24 01:17:45;;;;;;;;;;;;;;;14.02;100.00;96727.69;5049315;28;19929;-75
2023/06/24 01:20:15;;;;;;;;;;;;;;;14.04;100.00;96728.41;5047070;28;19925;-74
2023/06/24 01:23:11;;;;;;;;;;;;;;;14.03;100.00;96730.19;5048979;28;19928;-75
2023/06/24 01:25:44;;;;;;;;;;;;;;;13.84;100.00;96732.25;5047743;28;19951;-74
2023/06/24 01:28:20;;;;;;;;;;;;;;;13.91;100.00;96730.94;5051559;28;19929;-76
2023/06/24 01:30:55;;;;;;;;;;;;;;;13.85;100.00;96733.06;5049087;28;19925;-74
2023/06/24 01:33:26;;;;;;;;;;;;;;;13.66;100.00;96728.97;5049088;28;19929;-74
2023/06/24 01:35:53;;;;;;;;;;;;;;;13.56;100.00;96728.66;5048304;28;20019;-75
2023/06/24 01:38:23;;;;;;;;;;;;;;;13.44;100.00;96720.75;5047454;28;20379;-75
2023/06/24 01:40:51;;;;;;;;;;;;;;;13.48;100.00;96722.25;5049711;28;19974;-75
2023/06/24 01:43:18;;;;;;;;;;;;;;;13.47;100.00;96721.41;5041014;28;20421;-75
2023/06/24 01:45:46;;;;;;;;;;;;;;;13.32;100.00;96719.72;5049829;28;19925;-75
2023/06/24 01:48:14;;;;;;;;;;;;;;;13.38;100.00;96716.75;5051616;28;19970;-74
2023/06/24 01:50:44;;;;;;;;;;;;;;;13.27;100.00;96709.59;5041042;28;19967;-75
2023/06/24 01:53:11;;;;;;;;;;;;;;;13.31;100.00;96718.88;5041952;28;19948;-75
2023/06/24 01:55:38;;;;;;;;;;;;;;;13.39;100.00;96715.84;5040920;28;19926;-75
2023/06/24 01:58:07;;;;;;;;;;;;;;;13.46;100.00;96722.34;5040706;28;19925;-75
2023/06/24 02:00:34;;;;;;;;;;;;;;;13.42;100.00;96723.47;5044914;28;19990;-74
2023/06/24 02:03:01;;;;;;;;;;;;;;;13.39;100.00;96726.25;5043971;28;19947;-75
2023/06/24 02:05:28;;;;;;;;;;;;;;;13.40;100.00;96719.28;5045007;28;20056;-75
2023/06/24 02:07:57;;;;;;;;;;;;;;;13.33;100.00;96724.00;5051514;28;19933;-75
2023/06/24 02:10:24;;;;;;;;;;;;;;;13.32;100.00;96723.16;5050409;28;19936;-75
2023/06/24 02:12:51;;;;;;;;;;;;;;;13.30;100.00;96718.97;5054151;28;19925;-74
2023/06/24 02:15:19;;;;;;;;;;;;;;;13.22;100.00;96718.53;5051672;28;19932;-74
2023/06/24 02:17:47;;;;;;;;;;;;;;;13.21;100.00;96717.72;5051927;28;19924;-74
2023/06/24 02:20:16;;;;;;;;;;;;;;;13.29;100.00;96719.91;5052321;28;19983;-74
2023/06/24 02:22:42;;;;;;;;;;;;;;;13.20;100.00;96715.19;5053922;28;19932;-74
2023/06/24 02:25:10;;;;;;;;;;;;;;;13.23;100.00;96715.88;5052393;28;19925;-74
2023/06/24 02:27:36;;;;;;;;;;;;;;;13.15;100.00;96709.41;5052380;28;19932;-74
2023/06/24 02:30:03;;;;;;;;;;;;;;;13.10;100.00;96714.06;5053921;28;19932;-74
2023/06/24 02:32:29;;;;;;;;;;;;;;;13.05;100.00;96706.50;5047504;28;20409;-74
2023/06/24 02:34:57;;;;;;;;;;;;;;;12.98;100.00;96710.41;5050124;28;19936;-74
2023/06/24 02:37:24;;;;;;;;;;;;;;;13.02;100.00;96712.75;5051593;28;19932;-75
2023/06/24 02:39:50;;;;;;;;;;;;;;;13.10;100.00;96711.47;5054326;28;19932;-74
2023/06/24 02:42:18;;;;;;;;;;;;;;;13.15;100.00;96709.41;5045987;28;19929;-74
2023/06/24 02:44:44;;;;;;;;;;;;;;;13.07;100.00;96712.47;5053952;28;20303;-74
2023/06/24 02:47:12;;;;;;;;;;;;;;;12.97;100.00;96709.53;5047943;28;19932;-74
2023/06/24 02:49:39;;;;;;;;;;;;;;;13.03;100.00;96703.16;5051073;28;19929;-74
2023/06/24 02:52:05;;;;;;;;;;;;;;;13.05;100.00;96711.72;5041361;28;19925;-74
2023/06/24 02:54:32;;;;;;;;;;;;;;;13.10;100.00;96704.50;5045999;28;19928;-74
2023/06/24 02:56:59;;;;;;;;;;;;;;;12.94;100.00;96708.88;5044163;28;20341;-74
2023/06/24 02:59:26;;;;;;;;;;;;;;;12.99;100.00;96706.88;5048144;28;19929;-74
2023/06/24 03:01:54;;;;;;;;;;;;;;;13.02;100.00;96709.31;5041799;28;20338;-75
2023/06/24 03:04:20;;;;;;;;;;;;;;;13.02;100.00;96711.91;5045998;28;20024;-75
2023/06/24 03:06:48;;;;;;;;;;;;;;;12.86;100.00;96706.72;5043403;28;19948;-75
2023/06/24 03:09:15;;;;;;;;;;;;;;;12.78;100.00;96714.13;5044265;28;19925;-75
2023/06/24 03:11:41;;;;;;;;;;;;;;;12.87;100.00;96717.94;5053191;28;19951;-74
2023/06/24 03:14:08;;;;;;;;;;;;;;;12.75;100.00;96709.94;5043355;28;19929;-75
2023/06/24 03:16:36;;;;;;;;;;;;;;;12.67;100.00;96712.13;5048536;28;20317;-74
2023/06/24 03:19:02;;;;;;;;;;;;;;;12.62;100.00;96714.16;5044876;28;19933;-75
2023/06/24 03:21:29;;;;;;;;;;;;;;;12.56;100.00;96719.69;5051900;28;19929;-74
2023/06/24 03:23:55;;;;;;;;;;;;;;;12.45;100.00;96722.03;5043007;28;20016;-74
2023/06/24 03:26:21;;;;;;;;;;;;;;;12.45;100.00;96725.47;5054507;28;19987;-75
2023/06/24 03:28:48;;;;;;;;;;;;;;;12.53;100.00;96722.44;5052625;28;19933;-74
2023/06/24 03:31:16;;;;;;;;;;;;;;;12.40;100.00;96719.69;5054482;28;20345;-75
2023/06/24 03:33:45;;;;;;;;;;;;;;;12.42;100.00;96727.41;5052893;28;20057;-75
2023/06/24 03:36:11;;;;;;;;;;;;;;;12.37;100.00;96729.41;5047265;28;19929;-75
2023/06/24 03:38:38;;;;;;;;;;;;;;;12.36;100.00;96728.59;5053462;28;19933;-75
2023/06/24 03:41:04;;;;;;;;;;;;;;;12.29;100.00;96737.63;5054075;28;19928;-74
2023/06/24 03:43:30;;;;;;;;;;;;;;;12.17;100.00;96733.94;5052862;28;19932;-74
2023/06/24 03:45:56;;;;;;;;;;;;;;;12.15;100.00;96737.53;5049998;28;19925;-75
2023/06/24 03:48:23;;;;;;;;;;;;;;;12.20;100.00;96738.97;5052197;28;20409;-75
2023/06/24 03:50:50;;;;;;;;;;;;;;;12.20;100.00;96741.56;5048419;28;20441;-75
2023/06/24 03:53:17;;;;;;;;;;;;;;;12.28;100.00;96739.41;5045333;28;19929;-75
2023/06/24 03:55:43;;;;;;;;;;;;;;;12.45;100.00;96741.06;5042733;28;20315;-75
2023/06/24 03:58:09;;;;;;;;;;;;;;;12.50;100.00;96741.66;5049332;28;19935;-75
2023/06/24 04:00:39;;;;;;;;;;;;;;;12.57;100.00;96745.59;5048881;28;19932;-75
2023/06/24 04:03:05;;;;;;;;;;;;;;;12.67;100.00;96739.88;5042811;28;20011;-75
2023/06/24 04:05:31;;;;;;;;;;;;;;;12.75;100.00;96748.09;5048765;28;20311;-75
2023/06/24 04:07:59;;;;;;;;;;;;;;;12.71;100.00;96750.00;5042395;28;19971;-75
2023/06/24 04:10:25;;;;;;;;;;;;;;;12.79;100.00;96753.06;5042869;28;19933;-75
2023/06/24 04:12:51;;;;;;;;;;;;;;;12.84;100.00;96751.03;5050948;28;20395;-75
2023/06/24 04:15:18;;;;;;;;;;;;;;;12.84;100.00;96756.22;5050626;28;19925;-75
2023/06/24 04:17:44;;;;;;;;;;;;;;;12.83;100.00;96762.34;5050254;28;19929;-75
2023/06/24 04:20:11;;;;;;;;;;;;;;;12.86;100.00;96758.72;5045987;28;19929;-74
2023/06/24 04:22:38;;;;;;;;;;;;;;;12.90;100.00;96759.38;5049428;28;20136;-74
2023/06/24 04:25:06;;;;;;;;;;;;;;;12.87;100.00;96755.22;5051045;28;19999;-75
2023/06/24 04:27:33;;;;;;;;;;;;;;;12.81;100.00;96755.56;5045578;28;20043;-75
2023/06/24 04:29:59;;;;;;;;;;;;;;;12.79;100.00;96760.84;5046398;28;20350;-75
2023/06/24 04:32:25;;;;;;;;;;;;;;;12.71;100.00;96765.59;5049250;28;19941;-75
2023/06/24 04:34:52;;;;;;;;;;;;;;;12.75;100.00;96768.88;5050458;28;19947;-74
2023/06/24 04:37:18;;;;;;;;;;;;;;;12.70;100.00;96768.31;5044800;28;19925;-75
2023/06/24 04:39:45;;;;;;;;;;;;;;;12.73;100.00;96773.34;5052714;28;19929;-74
2023/06/24 04:42:14;;;;;;;;;;;;;;;12.80;100.00;96770.31;5051185;28;20402;-75
2023/06/24 04:44:40;;;;;;;;;;;;;;;12.87;100.00;96769.94;5046492;28;19951;-75
2023/06/24 04:47:07;;;;;;;;;;;;;;;12.93;100.00;96767.84;5046893;28;19925;-75
2023/06/24 04:49:33;;;;;;;;;;;;;;;13.02;100.00;96772.56;5043783;28;19948;-74
2023/06/24 04:52:00;;;;;;;;;;;;;;;13.12;100.00;96774.63;5039602;28;19933;-75
2023/06/24 04:54:26;;;;;;;;;;;;;;;13.14;100.00;96771.00;5048519;28;19932;-75
2023/06/24 04:56:55;;;;;;;;;;;;;;;13.10;100.00;96776.47;5048599;28;19979;-74
2023/06/24 04:59:22;;;;;;;;;;;;;;;13.20;100.00;96781.06;5049306;28;19929;-75
2023/06/24 05:01:48;;;;;;;;;;;;;;;13.34;100.00;96775.09;5049496;28;19925;-74
2023/06/24 05:04:15;;;;;;;;;;;;;;;13.42;100.00;96778.13;5049454;28;19932;-74
2023/06/24 05:06:41;;;;;;;;;;;;;;;13.43;100.00;96782.38;5043456;28;20314;-75
2023/06/24 05:09:08;;;;;;;;;;;;;;;13.57;100.00;96776.34;5047756;28;19948;-75
2023/06/24 05:11:34;;;;;;;;;;;;;;;13.50;100.00;96775.91;5047820;28;19974;-75
2023/06/24 05:14:00;;;;;;;;;;;;;;;13.41;100.00;96770.38;5045539;28;19929;-75
2023/06/24 05:16:28;;;;;;;;;;;;;;;13.53;100.00;96775.72;5047076;28;19925;-74
2023/06/24 05:18:54;;;;;;;;;;;;;;;13.60;100.00;96781.38;5047334;28;19928;-74
2023/06/24 05:21:21;;;;;;;;;;;;;;;13.54;100.00;96784.38;5049256;28;19933;-75
2023/06/24 05:23:47;;;;;;;;;;;;;;;13.40;100.00;96787.75;5044923;28;19929;-74
2023/06/24 05:26:13;;;;;;;;;;;;;;;13.32;100.00;96795.16;5048174;28;19925;-74
2023/06/24 05:28:39;;;;;;;;;;;;;;;13.24;100.00;96786.97;5051425;28;20302;-74
2023/06/24 05:31:06;;;;;;;;;;;;;;;13.52;100.00;96796.63;5049509;28;20006;-74
2023/06/24 05:33:33;;;;;;;;;;;;;;;13.66;100.00;96794.03;5051578;28;19929;-75
2023/06/24 05:35:59;;;;;;;;;;;;;;;13.86;100.00;96798.06;5047868;28;19928;-73
2023/06/24 05:38:26;;;;;;;;;;;;;;;14.07;100.00;96798.56;5042588;28;19933;-75
2023/06/24 05:40:52;;;;;;;;;;;;;;;14.09;100.00;96804.53;5050882;28;19933;-75
2023/06/24 05:43:18;;;;;;;;;;;;;;;14.20;100.00;96802.09;5047786;28;19931;-75
2023/06/24 05:45:45;;;;;;;;;;;;;;;14.26;100.00;96803.47;5048516;28;19929;-75
2023/06/24 05:48:11;;;;;;;;;;;;;;;14.48;100.00;96801.22;5046806;28;20346;-74
2023/06/24 05:50:39;;;;;;;;;;;;;;;14.66;100.00;96803.66;5049048;28;19929;-75
2023/06/24 05:53:05;;;;;;;;;;;;;;;14.70;100.00;96808.59;5043222;28;19990;-75
2023/06/24 05:55:31;;;;;;;;;;;;;;;14.83;100.00;96813.03;5046700;28;19929;-75
2023/06/24 05:57:57;;;;;;;;;;;;;;;15.10;100.00;96795.63;5042999;28;20383;-74
2023/06/24 06:00:24;;;;;;;;;;;;;;;15.24;100.00;96798.19;5048250;28;20288;-74
2023/06/24 06:02:50;;;;;;;;;;;;;;;15.27;100.00;96789.28;5046118;28;19932;-74
2023/06/24 06:05:16;;;;;;;;;;;;;;;15.43;100.00;96800.44;5039455;28;19955;-74
2023/06/24 06:07:44;;;;;;;;;;;;;;;15.36;100.00;96803.53;5047251;28;20352;-75
2023/06/24 06:10:10;;;;;;;;;;;;;;;15.47;100.00;96795.84;5044555;28;19929;-74
2023/06/24 06:12:36;;;;;;;;;;;;;;;15.58;100.00;96793.34;5046238;28;19925;-74
2023/06/24 06:15:03;;;;;;;;;;;;;;;15.75;100.00;96796.63;5039801;28;20448;-74
2023/06/24 06:17:29;;;;;;;;;;;;;;;16.19;100.00;96798.84;5045733;28;19933;-74
2023/06/24 06:19:55;;;;;;;;;;;;;;;16.35;100.00;96807.31;5044832;28;19996;-74
2023/06/24 06:22:22;;;;;;;;;;;;;;;16.55;100.00;96803.28;5049868;28;19929;-74
2023/06/24 06:24:49;;;;;;;;;;;;;;;16.73;100.00;96793.31;5042602;28;19929;-75
2023/06/24 06:27:15;;;;;;;;;;;;;;;16.97;100.00;96793.34;5044238;28;20012;-74
2023/06/24 06:29:42;;;;;;;;;;;;;;;16.81;100.00;96793.63;5048446;28;19936;-74
2023/06/24 06:32:08;;;;;;;;;;;;;;;17.00;100.00;96795.75;5042838;28;19970;-74
2023/06/24 06:34:35;;;;;;;;;;;;;;;17.17;100.00;96791.94;5047537;28;19932;-74
2023/06/24 06:37:01;;;;;;;;;;;;;;;17.25;100.00;96799.22;5039989;28;19929;-75
2023/06/24 06:39:27;;;;;;;;;;;;;;;17.55;100.00;96796.94;5036176;28;20414;-75
2023/06/24 06:41:55;;;;;;;;;;;;;;;17.34;100.00;96790.69;5041624;28;19928;-74
2023/06/24 06:44:21;;;;;;;;;;;;;;;17.33;100.00;96787.22;5041994;28;19928;-74
2023/06/24 06:46:47;;;;;;;;;;;;;;;17.40;100.00;96787.63;5047971;28;20560;-74
2023/06/24 06:49:13;;;;;;;;;;;;;;;17.64;100.00;96796.25;5048363;28;19925;-74
2023/06/24 06:51:40;;;;;;;;;;;;;;;17.95;100.00;96798.38;5048140;28;19935;-75
2023/06/24 06:54:06;;;;;;;;;;;;;;;18.18;100.00;96796.63;5050679;28;20395;-75
2023/06/24 06:56:32;;;;;;;;;;;;;;;18.52;100.00;96784.34;5049391;28;20302;-75
2023/06/24 06:59:00;;;;;;;;;;;;;;;18.51;100.00;96790.56;5045140;28;19925;-75
2023/06/24 07:01:26;;;;;;;;;;;;;;;18.76;100.00;96786.84;5041102;28;19949;-74
2023/06/24 07:03:52;;;;;;;;;;;;;;;18.84;98.67;96794.97;5040949;28;19932;-75
2023/06/24 07:06:19;;;;;;;;;;;;;;;19.03;97.46;96786.44;5044784;28;19932;-75
2023/06/24 07:08:46;;;;;;;;;;;;;;;19.13;95.63;96791.78;5044110;28;19976;-75
2023/06/24 07:11:13;;;;;;;;;;;;;;;19.41;95.79;96785.94;5044381;28;19929;-75
2023/06/24 07:13:39;;;;;;;;;;;;;;;19.66;90.33;96783.97;5039834;28;19937;-75
2023/06/24 07:16:07;;;;;;;;;;;;;;;19.46;90.63;96786.38;5039687;28;19962;-75
2023/06/24 07:18:33;;;;;;;;;;;;;;;19.66;88.52;96783.97;5040196;28;19929;-75
2023/06/24 07:21:01;;;;;;;;;;;;;;;19.63;88.29;96787.66;5045184;28;20299;-75
2023/06/24 07:23:27;;;;;;;;;;;;;;;20.00;88.16;96784.59;5045926;28;19936;-75
2023/06/24 07:25:53;;;;;;;;;;;;;;;19.94;85.05;96775.41;5036721;28;19932;-75
2023/06/24 07:28:19;;;;;;;;;;;;;;;20.13;84.36;96776.47;5046459;28;19933;-74
2023/06/24 07:30:46;;;;;;;;;;;;;;;20.49;83.65;96781.22;5046656;28;19933;-74
2023/06/24 07:33:13;;;;;;;;;;;;;;;20.52;80.40;96783.59;5047068;28;19924;-75
2023/06/24 07:35:39;;;;;;;;;;;;;;;20.62;78.66;96780.19;5043000;28;20043;-74
2023/06/24 07:38:06;;;;;;;;;;;;;;;20.56;78.35;96778.91;5046017;28;19936;-75
2023/06/24 07:40:32;;;;;;;;;;;;;;;20.78;79.16;96780.50;5045561;28;19979;-75
2023/06/24 07:42:58;;;;;;;;;;;;;;;20.68;77.10;96779.63;5045301;28;19925;-74
2023/06/24 07:45:25;;;;;;;;;;;;;;;20.65;77.62;96775.47;5040641;28;19925;-76
2023/06/24 07:47:51;;;;;;;;;;;;;;;20.97;74.82;96777.91;5044180;28;19929;-74
2023/06/24 07:50:19;;;;;;;;;;;;;;;21.02;75.19;96786.25;5041691;28;19932;-76
2023/06/24 07:52:45;;;;;;;;;;;;;;;21.50;74.50;96774.91;5048470;28;19933;-75
2023/06/24 07:55:12;;;;;;;;;;;;;;;21.18;73.71;96776.97;5049701;28;19928;-75
2023/06/24 07:57:38;;;;;;;;;;;;;;;21.29;74.28;96781.28;5050074;28;19933;-75
2023/06/24 08:00:09;;;;;;;;;;;;;;;21.91;71.31;96778.19;5043180;28;19948;-73
2023/06/24 08:02:35;;;;;;;;;;;;;;;22.11;68.29;96776.34;5046393;28;19981;-75
2023/06/24 08:05:01;;;;;;;;;;;;;;;22.00;68.62;96781.78;5051993;28;19936;-75
2023/06/24 08:07:30;;;;;;;;;;;;;;;22.20;66.53;96777.31;5039142;28;19924;-75
2023/06/24 08:09:56;;;;;;;;;;;;;;;22.30;66.49;96777.31;5050026;28;19963;-75
2023/06/24 08:12:22;;;;;;;;;;;;;;;22.35;66.21;96773.22;5052907;28;20272;-75
2023/06/24 08:14:48;;;;;;;;;;;;;;;21.87;67.65;96775.97;5048853;28;20038;-75
2023/06/24 08:17:15;;;;;;;;;;;;;;;22.10;68.12;96768.56;5051705;28;19933;-75
2023/06/24 08:19:41;;;;;;;;;;;;;;;22.17;66.00;96761.78;5048093;28;19935;-75
2023/06/24 08:22:08;;;;;;;;;;;;;;;22.02;66.04;96769.28;5051776;28;19929;-75
2023/06/24 08:24:37;;;;;;;;;;;;;;;22.44;66.20;96761.81;5052602;28;19925;-75
2023/06/24 08:27:03;;;;;;;;;;;;;;;22.65;63.21;96760.72;5049105;28;20409;-75
2023/06/24 08:29:30;;;;;;;;;;;;;;;23.31;61.60;96762.28;5044621;28;19928;-75
2023/06/24 08:31:56;;;;;;;;;;;;;;;23.24;58.77;96748.00;5048967;28;19952;-75
2023/06/24 08:34:22;;;;;;;;;;;;;;;23.23;60.56;96749.84;5041407;28;19932;-75
2023/06/24 08:36:48;;;;;;;;;;;;;;;23.08;59.95;96756.63;5042118;28;19925;-75
2023/06/24 08:39:15;;;;;;;;;;;;;;;23.77;59.27;96755.09;5046851;28;19925;-75
2023/06/24 08:41:42;;;;;;;;;;;;;;;23.97;59.06;96742.50;5037811;28;20053;-75
2023/06/24 08:44:08;;;;;;;;;;;;;;;24.42;60.29;96749.41;5041779;28;19924;-75
2023/06/24 08:46:35;;;;;;;;;;;;;;;24.70;53.51;96750.03;5052161;28;19924;-75
2023/06/24 08:49:04;;;;;;;;;;;;;;;24.96;52.51;96748.09;5045458;28;19976;-75
2023/06/24 08:51:33;;;;;;;;;;;;;;;25.11;49.65;96753.63;5047639;28;20394;-75
2023/06/24 08:54:00;;;;;;;;;;;;;;;25.09;45.44;96750.28;5050172;28;19924;-75
2023/06/24 08:56:26;;;;;;;;;;;;;;;25.10;45.61;96751.94;5043931;28;19929;-76
2023/06/24 08:58:54;;;;;;;;;;;;;;;25.18;49.29;96752.00;5052049;28;19932;-76
2023/06/24 09:01:21;;;;;;;;;;;;;;;25.20;45.71;96755.28;5042214;28;19948;-77
2023/06/24 09:03:47;;;;;;;;;;;;;;;25.34;47.99;96751.16;5039873;28;19925;-76
2023/06/24 09:06:13;;;;;;;;;;;;;;;25.38;44.64;96751.66;5045197;28;19978;-76
2023/06/24 09:08:41;;;;;;;;;;;;;;;25.53;44.99;96757.97;5048702;28;19924;-76
2023/06/24 09:11:09;;;;;;;;;;;;;;;25.70;43.50;96748.19;5051614;28;19952;-75
2023/06/24 09:13:35;;;;;;;;;;;;;;;24.71;43.34;96741.91;5048390;28;20324;-76
2023/06/24 09:16:11;;;;;;;;;;;;;;;25.01;46.47;96737.00;5041672;28;19964;-75
2023/06/24 09:18:38;;;;;;;;;;;;;;;25.55;48.48;96740.91;5046157;28;19929;-75
2023/06/24 09:21:04;;;;;;;;;;;;;;;25.70;43.29;96742.91;5046469;28;19925;-75
2023/06/24 09:23:31;;;;;;;;;;;;;;;25.75;41.64;96736.06;5041510;28;20295;-75
2023/06/24 09:25:57;;;;;;;;;;;;;;;25.75;41.46;96730.78;5044717;28;19967;-75
2023/06/24 09:28:26;;;;;;;;;;;;;;;25.98;43.51;96733.59;5049721;28;19963;-75
2023/06/24 09:31:04;;;;;;;;;;;;;;;26.14;39.92;96718.59;5048789;28;19940;-75
2023/06/24 09:33:32;;;;;;;;;;;;;;;26.08;44.31;96722.78;5049338;28;19929;-75
2023/06/24 09:35:58;;;;;;;;;;;;;;;25.94;40.57;96715.53;5049831;28;19925;-75
2023/06/24 09:38:32;;;;;;;;;;;;;;;26.13;40.21;96720.44;5051163;28;19925;-75
2023/06/24 09:41:02;;;;;;;;;;;;;;;25.98;40.32;96722.97;5052484;28;19932;-76
2023/06/24 09:43:28;;;;;;;;;;;;;;;25.93;42.05;96724.47;5042372;28;19932;-75
2023/06/24 09:45:55;;;;;;;;;;;;;;;25.92;39.84;96712.19;5043689;28;19933;-75
2023/06/24 09:48:21;;;;;;;;;;;;;;;26.01;37.63;96705.88;5048680;28;20341;-75
2023/06/24 09:50:49;;;;;;;;;;;;;;;25.68;38.11;96705.91;5047533;28;19971;-76
2023/06/24 09:53:16;;;;;;;;;;;;;;;26.03;41.44;96710.03;5047145;28;19928;-75
2023/06/24 09:55:46;;;;;;;;;;;;;;;26.15;38.57;96704.34;5046826;28;19971;-75
2023/06/24 09:58:12;;;;;;;;;;;;;;;26.14;38.23;96700.88;5045196;28;19925;-75
2023/06/24 10:00:38;;;;;;;;;;;;;;;26.03;35.56;96702.06;5040353;28;19929;-75
2023/06/24 10:03:05;;;;;;;;;;;;;;;26.03;36.67;96703.88;5042294;28;19933;-76
2023/06/24 10:05:31;;;;;;;;;;;;;;;26.12;38.64;96710.81;5048672;28;19954;-75
2023/06/24 10:07:59;;;;;;;;;;;;;;;26.00;39.03;96698.94;5040759;28;19933;-75
2023/06/24 10:10:25;;;;;;;;;;;;;;;25.97;38.92;96708.03;5051567;28;19929;-75
2023/06/24 10:12:51;;;;;;;;;;;;;;;26.15;35.48;96699.88;5048718;28;20267;-75
2023/06/24 10:15:17;;;;;;;;;;;;;;;25.76;36.62;96705.06;5047154;28;19925;-75
2023/06/24 10:17:45;;;;;;;;;;;;;;;25.99;37.23;96699.91;5046162;28;19925;-75
2023/06/24 10:20:12;;;;;;;;;;;;;;;25.45;37.23;96699.63;5045774;28;19955;-75
2023/06/24 10:22:38;;;;;;;;;;;;;;;25.33;39.23;96684.06;5045211;28;19978;-76
2023/06/24 10:25:08;;;;;;;;;;;;;;;24.78;38.61;96681.97;5048985;28;20280;-74
2023/06/24 10:27:39;;;;;;;;;;;;;;;24.96;38.72;96683.69;5055650;28;19960;-76
2023/06/24 10:30:07;;;;;;;;;;;;;;;25.15;39.17;96677.25;5054223;28;20334;-76
2023/06/24 10:32:40;;;;;;;;;;;;;;;25.24;38.99;96671.78;5049138;28;19931;-76
2023/06/24 10:35:07;;;;;;;;;;;;;;;24.95;41.53;96671.41;5050252;28;19956;-75
2023/06/24 10:37:34;;;;;;;;;;;;;;;25.02;40.33;96662.63;5046788;28;19925;-75
2023/06/24 10:40:00;;;;;;;;;;;;;;;25.69;42.77;96669.59;5053162;28;19924;-74
2023/06/24 10:42:33;;;;;;;;;;;;;;;25.61;40.45;96669.59;5052813;28;20342;-74
2023/06/24 10:45:00;;;;;;;;;;;;;;;25.36;41.67;96664.31;5042716;28;19971;-75
2023/06/24 10:47:27;;;;;;;;;;;;;;;25.27;39.80;96665.31;5053609;28;19925;-74
2023/06/24 10:49:53;;;;;;;;;;;;;;;25.48;40.03;96660.34;5050507;28;19929;-74
2023/06/24 10:52:21;;;;;;;;;;;;;;;25.37;39.27;96659.88;5039862;28;20394;-74
2023/06/24 10:54:47;;;;;;;;;;;;;;;25.60;38.79;96658.16;5045245;28;19929;-74
2023/06/24 10:57:14;;;;;;;;;;;;;;;25.79;38.03;96657.81;5046188;28;19929;-74
2023/06/24 10:59:42;;;;;;;;;;;;;;;26.01;40.25;96653.63;5045541;28;19966;-74
2023/06/24 11:02:09;;;;;;;;;;;;;;;26.35;38.25;96649.81;5040922;28;19928;-74
2023/06/24 11:04:42;;;;;;;;;;;;;;;26.12;35.08;96659.56;5045273;28;20015;-74
2023/06/24 11:07:08;;;;;;;;;;;;;;;26.19;35.74;96653.38;5047533;28;19932;-74
2023/06/24 11:09:35;;;;;;;;;;;;;;;26.25;35.35;96649.19;5052321;28;19928;-75
2023/06/24 11:12:03;;;;;;;;;;;;;;;25.72;35.68;96640.91;5053526;28;19933;-74
2023/06/24 11:14:29;;;;;;;;;;;;;;;25.33;36.76;96643.47;5047385;28;19925;-74
2023/06/24 11:16:57;;;;;;;;;;;;;;;25.33;37.25;96638.97;5052642;28;19928;-74
2023/06/24 11:19:23;;;;;;;;;;;;;;;25.71;37.72;96643.72;5050685;28;19947;-74
2023/06/24 11:21:49;;;;;;;;;;;;;;;25.53;36.97;96633.31;5052457;28;19925;-74
2023/06/24 11:24:15;;;;;;;;;;;;;;;25.55;40.46;96639.28;5041798;28;19932;-74
2023/06/24 11:26:42;;;;;;;;;;;;;;;25.40;38.18;96628.53;5050301;28;20275;-75
2023/06/24 11:29:10;;;;;;;;;;;;;;;25.47;34.62;96631.31;5050365;28;19937;-74
2023/06/24 11:31:37;;;;;;;;;;;;;;;25.49;36.44;96621.38;5048191;28;19929;-74
2023/06/24 11:34:05;;;;;;;;;;;;;;;25.79;39.29;96612.72;5050248;28;19971;-74
2023/06/24 11:36:31;;;;;;;;;;;;;;;26.18;37.90;96619.03;5048323;28;20384;-74
2023/06/24 11:38:58;;;;;;;;;;;;;;;25.76;36.05;96605.06;5042497;28;19988;-74
2023/06/24 11:41:25;;;;;;;;;;;;;;;26.00;36.88;96614.81;5048639;28;20329;-75
2023/06/24 11:43:52;;;;;;;;;;;;;;;26.29;37.98;96597.41;5046411;28;19932;-75
2023/06/24 11:46:21;;;;;;;;;;;;;;;26.43;37.60;96601.16;5042475;28;19932;-75
2023/06/24 11:48:48;;;;;;;;;;;;;;;26.26;38.04;96606.56;5049929;28;20398;-74
2023/06/24 11:51:15;;;;;;;;;;;;;;;26.27;37.57;96608.22;5048105;28;20350;-75
2023/06/24 11:53:42;;;;;;;;;;;;;;;26.04;34.89;96602.03;5049683;28;19932;-75
2023/06/24 11:56:09;;;;;;;;;;;;;;;26.01;36.71;96594.41;5046321;28;20028;-75
2023/06/24 11:58:36;;;;;;;;;;;;;;;26.21;34.36;96590.31;5049968;28;19925;-75
2023/06/24 12:01:02;;;;;;;;;;;;;;;26.16;32.47;96578.56;5045709;28;20024;-75
2023/06/24 12:03:28;;;;;;;;;;;;;;;25.95;31.75;96576.50;5041283;28;19925;-75
2023/06/24 12:05:55;;;;;;;;;;;;;;;25.98;34.88;96573.50;5048406;28;19925;-76
2023/06/24 12:08:23;;;;;;;;;;;;;;;26.26;33.85;96565.91;5044684;28;19925;-75
2023/06/24 12:10:49;;;;;;;;;;;;;;;26.37;36.21;96570.81;5051914;28;19929;-74
2023/06/24 12:13:16;;;;;;;;;;;;;;;26.44;35.75;96562.94;5047524;28;20302;-75
2023/06/24 12:15:42;;;;;;;;;;;;;;;26.47;35.20;96566.13;5051177;28;19978;-74
2023/06/24 12:18:08;;;;;;;;;;;;;;;26.48;35.51;96557.16;5051893;28;19932;-75
2023/06/24 12:20:36;;;;;;;;;;;;;;;26.54;33.10;96561.75;5052804;28;19924;-76
2023/06/24 12:23:03;;;;;;;;;;;;;;;26.58;34.24;96561.41;5049749;28;20302;-76
2023/06/24 12:25:31;;;;;;;;;;;;;;;26.37;33.80;96554.88;5049812;28;20294;-75
2023/06/24 12:27:59;;;;;;;;;;;;;;;26.34;33.28;96551.75;5052567;28;19925;-75
2023/06/24 12:30:25;;;;;;;;;;;;;;;26.43;33.48;96548.84;5043445;28;19964;-75
2023/06/24 12:32:51;;;;;;;;;;;;;;;26.27;32.85;96544.47;5043524;28;19929;-75
2023/06/24 12:35:18;;;;;;;;;;;;;;;26.37;33.62;96548.75;5050449;28;19936;-75
2023/06/24 12:37:45;;;;;;;;;;;;;;;26.26;34.42;96545.50;5042926;28;20326;-75
2023/06/24 12:40:11;;;;;;;;;;;;;;;26.19;33.35;96543.72;5050517;28;20415;-75